createdAt,value
2022-10-04T00:00:46.650Z,53.50
2022-10-04T00:03:13.229Z,53.60
2022-10-04T00:05:39.714Z,53.10
2022-10-04T00:08:06.109Z,53.60
2022-10-04T00:10:32.527Z,53.60
2022-10-04T00:12:58.929Z,53.50
2022-10-04T00:15:25.363Z,52.90
2022-10-04T00:17:51.778Z,53.30
2022-10-04T00:20:18.195Z,53.30
2022-10-04T00:22:44.588Z,52.80
2022-10-04T00:25:10.991Z,52.60
2022-10-04T00:27:37.384Z,53.20
2022-10-04T00:30:03.805Z,52.70
2022-10-04T00:32:30.220Z,53.10
2022-10-04T00:34:56.625Z,52.60
2022-10-04T00:37:23.016Z,53.30
2022-10-04T00:39:49.425Z,53.00
2022-10-04T00:42:15.841Z,53.10
2022-10-04T00:44:42.231Z,52.80
2022-10-04T00:47:08.626Z,52.70
2022-10-04T00:49:35.026Z,52.50
2022-10-04T00:52:01.449Z,52.90
2022-10-04T00:54:27.850Z,52.90
2022-10-04T00:56:54.247Z,53.20
2022-10-04T00:59:20.643Z,52.80
2022-10-04T01:01:47.049Z,53.10
2022-10-04T01:06:40.421Z,52.60
2022-10-04T01:09:06.833Z,53.00
2022-10-04T01:11:33.234Z,52.70
2022-10-04T01:13:59.646Z,52.90
2022-10-04T01:16:26.084Z,52.60
2022-10-04T01:18:52.530Z,52.90
2022-10-04T01:21:18.955Z,52.70
2022-10-04T01:23:45.363Z,52.80
2022-10-04T01:26:11.765Z,51.90
2022-10-04T01:28:38.161Z,53.00
2022-10-04T01:31:04.647Z,52.80
2022-10-04T01:33:31.109Z,52.70
2022-10-04T01:35:57.509Z,52.30
2022-10-04T01:38:23.910Z,52.90
2022-10-04T01:40:50.314Z,53.20
2022-10-04T01:43:16.729Z,53.10
2022-10-04T01:45:43.129Z,53.10
2022-10-04T01:48:09.526Z,53.00
2022-10-04T01:50:35.916Z,53.20
2022-10-04T01:53:02.338Z,53.20
2022-10-04T01:55:28.756Z,52.50
2022-10-04T01:57:55.158Z,53.10
2022-10-04T02:00:21.566Z,52.90
2022-10-04T02:02:47.961Z,52.70
2022-10-04T02:05:14.357Z,52.20
2022-10-04T02:07:40.755Z,52.70
2022-10-04T02:10:07.162Z,52.80
2022-10-04T02:12:33.564Z,52.80
2022-10-04T02:14:59.976Z,52.30
2022-10-04T02:17:26.374Z,52.80
2022-10-04T02:19:52.777Z,52.80
2022-10-04T02:22:19.185Z,53.00
2022-10-04T02:24:45.626Z,52.20
2022-10-04T02:27:12.016Z,52.90
2022-10-04T02:29:38.408Z,52.90
2022-10-04T02:32:04.803Z,52.50
2022-10-04T02:34:31.200Z,52.00
2022-10-04T02:36:57.598Z,52.60
2022-10-04T02:39:24.000Z,52.80
2022-10-04T02:41:50.419Z,52.70
2022-10-04T02:44:16.813Z,52.40
2022-10-04T02:46:43.322Z,52.90
2022-10-04T02:49:09.749Z,52.90
2022-10-04T02:51:36.132Z,52.80
2022-10-04T02:54:03.799Z,52.90
2022-10-04T02:56:30.379Z,52.30
2022-10-04T02:58:56.784Z,52.90
2022-10-04T03:01:23.247Z,52.90
2022-10-04T03:03:49.694Z,52.70
2022-10-04T03:06:16.097Z,52.20
2022-10-04T03:08:42.489Z,52.10
2022-10-04T03:11:08.913Z,51.90
2022-10-04T03:13:35.308Z,51.90
2022-10-04T03:16:01.748Z,52.20
2022-10-04T03:18:28.155Z,52.00
2022-10-04T03:20:54.553Z,52.50
2022-10-04T03:23:20.949Z,52.60
2022-10-04T03:25:47.336Z,51.40
2022-10-04T03:28:13.794Z,52.30
2022-10-04T03:30:40.246Z,52.10
2022-10-04T03:33:06.641Z,51.70
2022-10-04T03:35:33.060Z,51.40
2022-10-04T03:37:59.464Z,51.70
2022-10-04T03:40:25.857Z,52.30
2022-10-04T03:42:52.268Z,52.30
2022-10-04T03:45:18.664Z,51.40
2022-10-04T03:47:45.082Z,52.50
2022-10-04T03:50:11.486Z,52.60
2022-10-04T03:52:37.882Z,51.80
2022-10-04T03:55:04.284Z,52.00
2022-10-04T03:57:30.682Z,52.60
2022-10-04T03:59:57.101Z,52.50
2022-10-04T04:02:23.564Z,52.40
2022-10-04T04:04:50.019Z,51.70
2022-10-04T04:07:16.424Z,51.60
2022-10-04T04:09:42.836Z,51.90
2022-10-04T04:12:09.285Z,51.10
2022-10-04T04:14:35.693Z,51.10
2022-10-04T04:17:02.092Z,51.60
2022-10-04T04:19:28.485Z,51.00
2022-10-04T04:21:54.877Z,51.70
2022-10-04T04:24:21.272Z,51.10
2022-10-04T04:26:47.681Z,51.60
2022-10-04T04:29:14.080Z,51.70
2022-10-04T04:31:40.791Z,51.40
2022-10-04T04:34:07.425Z,51.70
2022-10-04T04:36:33.844Z,50.90
2022-10-04T04:39:00.236Z,51.80
2022-10-04T04:41:26.624Z,51.10
2022-10-04T04:43:53.037Z,51.20
2022-10-04T04:46:28.120Z,50.70
2022-10-04T04:48:54.852Z,51.30
2022-10-04T04:51:21.258Z,51.10
2022-10-04T04:53:47.713Z,50.50
2022-10-04T04:56:17.472Z,51.80
2022-10-04T04:58:44.533Z,51.10
2022-10-04T05:01:10.982Z,51.30
2022-10-04T05:03:37.433Z,51.40
2022-10-04T05:06:03.863Z,52.10
2022-10-04T05:08:30.279Z,52.10
2022-10-04T05:10:56.673Z,52.20
2022-10-04T05:13:23.081Z,51.40
2022-10-04T05:15:49.505Z,51.20
2022-10-04T05:18:15.892Z,51.90
2022-10-04T05:20:42.313Z,51.20
2022-10-04T05:23:08.731Z,51.60
2022-10-04T05:25:35.153Z,52.20
2022-10-04T05:28:01.597Z,52.00
2022-10-04T05:30:28.088Z,51.40
2022-10-04T05:32:54.488Z,51.50
2022-10-04T05:35:20.893Z,51.60
2022-10-04T05:37:47.301Z,51.90
2022-10-04T05:40:13.714Z,51.90
2022-10-04T05:42:40.147Z,51.50
2022-10-04T05:45:06.583Z,50.90
2022-10-04T05:47:32.999Z,51.50
2022-10-04T05:49:59.421Z,51.40
2022-10-04T05:52:25.840Z,51.30
2022-10-04T05:54:52.237Z,50.80
2022-10-04T05:57:18.641Z,51.70
2022-10-04T05:59:45.048Z,51.10
2022-10-04T06:02:11.499Z,51.80
2022-10-04T06:04:37.991Z,51.40
2022-10-04T06:07:04.421Z,51.60
2022-10-04T06:09:30.828Z,51.80
2022-10-04T06:11:57.248Z,49.60
2022-10-04T06:14:23.646Z,50.70
2022-10-04T06:16:50.108Z,51.20
2022-10-04T06:19:16.571Z,51.00
2022-10-04T06:21:43.280Z,50.90
2022-10-04T06:24:09.864Z,50.40
2022-10-04T06:26:36.261Z,50.30
2022-10-04T06:29:02.667Z,50.80
2022-10-04T06:31:29.079Z,50.90
2022-10-04T06:33:55.504Z,50.20
2022-10-04T06:36:21.897Z,50.70
2022-10-04T06:38:48.324Z,50.70
2022-10-04T06:41:14.725Z,50.70
2022-10-04T06:43:41.140Z,50.80
2022-10-04T06:46:07.617Z,50.70
2022-10-04T06:48:34.097Z,50.20
2022-10-04T06:51:00.522Z,50.30
2022-10-04T06:53:26.933Z,50.30
2022-10-04T06:55:53.353Z,50.80
2022-10-04T06:58:19.762Z,50.80
2022-10-04T07:00:46.201Z,50.70
2022-10-04T07:03:12.601Z,50.40
2022-10-04T07:05:39.004Z,50.80
2022-10-04T07:08:05.413Z,52.20
2022-10-04T07:10:31.814Z,51.30
2022-10-04T07:12:58.248Z,51.20
2022-10-04T07:15:24.658Z,51.60
2022-10-04T07:17:51.073Z,51.50
2022-10-04T07:20:17.473Z,51.30
2022-10-04T07:22:43.866Z,51.50
2022-10-04T07:25:10.281Z,51.10
2022-10-04T07:27:36.715Z,51.70
2022-10-04T07:30:03.140Z,51.20
2022-10-04T07:32:29.542Z,50.70
2022-10-04T07:34:55.953Z,50.60
2022-10-04T07:37:22.374Z,51.40
2022-10-04T07:39:48.790Z,51.60
2022-10-04T07:42:15.203Z,51.30
2022-10-04T07:44:41.603Z,50.90
2022-10-04T07:47:08.027Z,51.60
2022-10-04T07:49:34.428Z,51.20
2022-10-04T07:52:00.838Z,51.50
2022-10-04T07:54:27.254Z,50.70
2022-10-04T07:56:53.667Z,51.60
2022-10-04T07:59:20.077Z,51.60
2022-10-04T08:01:47.104Z,51.50
2022-10-04T08:04:13.796Z,51.10
2022-10-04T08:06:40.449Z,51.50
2022-10-04T08:09:06.993Z,51.60
2022-10-04T08:11:33.405Z,51.60
2022-10-04T08:13:59.811Z,50.70
2022-10-04T08:16:26.267Z,50.80
2022-10-04T08:18:52.732Z,51.20
2022-10-04T08:21:19.136Z,51.10
2022-10-04T08:23:45.543Z,50.50
2022-10-04T08:26:11.945Z,51.10
2022-10-04T08:28:38.420Z,51.10
2022-10-04T08:31:05.085Z,51.10
2022-10-04T08:33:31.555Z,50.50
2022-10-04T08:35:57.962Z,51.00
2022-10-04T08:38:24.377Z,51.10
2022-10-04T08:40:50.775Z,51.10
2022-10-04T08:43:17.335Z,50.40
2022-10-04T08:45:43.745Z,51.10
2022-10-04T08:48:10.168Z,51.00
2022-10-04T08:50:36.566Z,51.00
2022-10-04T08:53:05.370Z,50.50
2022-10-04T08:55:33.911Z,50.50
2022-10-04T08:58:00.302Z,51.00
2022-10-04T09:00:26.709Z,51.00
2022-10-04T09:02:53.132Z,51.00
2022-10-04T09:05:19.572Z,50.50
2022-10-04T09:07:45.962Z,51.10
2022-10-04T09:10:12.388Z,51.10
2022-10-04T09:12:38.811Z,51.10
2022-10-04T09:15:05.226Z,50.50
2022-10-04T09:17:31.636Z,50.60
2022-10-04T09:20:14.008Z,51.20
2022-10-04T09:22:44.448Z,51.80
2022-10-04T09:25:10.845Z,50.60
2022-10-04T09:27:54.728Z,51.20
2022-10-04T09:30:21.734Z,51.10
2022-10-04T09:32:48.164Z,51.20
2022-10-04T09:35:14.584Z,50.60
2022-10-04T09:37:40.977Z,51.10
2022-10-04T09:40:07.386Z,51.10
2022-10-04T09:42:33.798Z,51.20
2022-10-04T09:45:00.294Z,50.50
2022-10-04T09:47:26.718Z,51.20
2022-10-04T09:49:53.125Z,51.20
2022-10-04T09:52:19.565Z,51.20
2022-10-04T09:54:45.987Z,50.50
2022-10-04T09:57:12.423Z,50.60
2022-10-04T09:59:38.839Z,51.10
2022-10-04T10:02:05.338Z,51.10
2022-10-04T10:04:31.774Z,50.60
2022-10-04T10:06:58.180Z,51.20
2022-10-04T10:09:24.607Z,51.20
2022-10-04T10:11:51.027Z,51.20
2022-10-04T10:14:17.454Z,50.70
2022-10-04T10:16:44.121Z,51.30
2022-10-04T10:19:10.658Z,51.20
2022-10-04T10:21:37.065Z,51.20
2022-10-04T10:24:03.490Z,50.90
2022-10-04T10:26:29.900Z,51.40
2022-10-04T10:28:56.300Z,51.50
2022-10-04T10:31:22.790Z,51.40
2022-10-04T10:33:49.227Z,51.00
2022-10-04T10:36:15.628Z,51.50
2022-10-04T10:38:42.058Z,51.50
2022-10-04T10:41:08.487Z,51.50
2022-10-04T10:43:34.917Z,50.90
2022-10-04T10:46:01.406Z,51.50
2022-10-04T10:48:27.856Z,51.50
2022-10-04T10:50:54.272Z,51.40
2022-10-04T10:53:21.349Z,50.90
2022-10-04T10:55:49.148Z,50.90
2022-10-04T10:58:15.557Z,51.50
2022-10-04T11:00:41.965Z,51.00
2022-10-04T11:03:13.652Z,50.90
2022-10-04T11:05:40.670Z,51.50
2022-10-04T11:08:07.109Z,51.50
2022-10-04T11:10:33.515Z,51.50
2022-10-04T11:12:59.916Z,50.90
2022-10-04T11:15:26.344Z,51.50
2022-10-04T11:17:52.765Z,51.60
2022-10-04T11:20:19.180Z,51.60
2022-10-04T11:22:45.609Z,51.60
2022-10-04T11:25:12.035Z,51.00
2022-10-04T11:27:38.430Z,51.60
2022-10-04T11:30:04.834Z,51.10
2022-10-04T11:32:31.259Z,51.10
2022-10-04T11:34:57.677Z,51.10
2022-10-04T11:37:24.088Z,51.70
2022-10-04T11:39:50.497Z,51.80
2022-10-04T11:42:16.897Z,51.70
2022-10-04T11:44:43.329Z,51.20
2022-10-04T11:47:09.828Z,51.80
2022-10-04T11:49:36.268Z,51.80
2022-10-04T11:52:02.920Z,52.40
2022-10-04T11:54:29.348Z,51.30
2022-10-04T11:56:55.801Z,51.90
2022-10-04T11:59:22.227Z,51.40
2022-10-04T12:01:48.666Z,51.90
2022-10-04T12:04:15.130Z,51.30
2022-10-04T12:06:41.561Z,51.90
2022-10-04T12:09:08.004Z,51.90
2022-10-04T12:11:34.432Z,51.90
2022-10-04T12:14:00.838Z,51.40
2022-10-04T12:16:27.299Z,52.50
2022-10-04T12:18:53.740Z,52.00
2022-10-04T12:21:20.142Z,52.00
2022-10-04T12:23:46.552Z,51.50
2022-10-04T12:26:17.119Z,52.00
2022-10-04T12:28:45.627Z,52.00
2022-10-04T12:31:12.119Z,52.00
2022-10-04T12:33:38.613Z,51.90
2022-10-04T12:36:05.053Z,52.30
2022-10-04T12:38:31.482Z,52.60
2022-10-04T12:40:57.886Z,52.40
2022-10-04T12:43:24.342Z,51.60
2022-10-04T12:45:50.813Z,52.20
2022-10-04T12:48:17.259Z,52.30
2022-10-04T12:50:43.676Z,52.50
2022-10-04T12:53:10.104Z,52.80
2022-10-04T12:55:36.517Z,53.30
2022-10-04T12:58:02.955Z,53.20
2022-10-04T13:00:29.383Z,52.90
2022-10-04T13:02:55.802Z,52.60
2022-10-04T13:05:22.209Z,52.10
2022-10-04T13:07:48.627Z,52.10
2022-10-04T13:10:30.428Z,52.60
2022-10-04T13:12:56.865Z,52.70
2022-10-04T13:15:23.724Z,52.00
2022-10-04T13:17:50.209Z,52.60
2022-10-04T13:20:16.635Z,52.70
2022-10-04T13:22:58.548Z,52.60
2022-10-04T13:25:24.982Z,51.20
2022-10-04T13:27:51.406Z,52.60
2022-10-04T13:30:17.855Z,52.20
2022-10-04T13:32:44.270Z,52.70
2022-10-04T13:35:10.688Z,52.10
2022-10-04T13:37:37.105Z,52.60
2022-10-04T13:40:03.591Z,52.70
2022-10-04T13:42:30.082Z,52.70
2022-10-04T13:44:56.503Z,52.10
2022-10-04T13:47:22.907Z,52.60
2022-10-04T13:49:49.325Z,52.70
2022-10-04T13:52:15.780Z,52.60
2022-10-04T13:54:42.203Z,52.10
2022-10-04T13:57:08.639Z,52.60
2022-10-04T13:59:35.398Z,52.70
2022-10-04T14:02:01.866Z,52.60
2022-10-04T14:04:28.297Z,52.10
2022-10-04T14:06:54.718Z,52.70
2022-10-04T14:09:21.138Z,52.60
2022-10-04T14:11:48.000Z,52.60
2022-10-04T14:14:14.741Z,52.10
2022-10-04T14:16:41.230Z,52.70
2022-10-04T14:19:07.690Z,52.60
2022-10-04T14:21:34.110Z,52.70
2022-10-04T14:24:00.518Z,52.20
2022-10-04T14:26:26.929Z,52.70
2022-10-04T14:28:53.353Z,52.70
2022-10-04T14:31:19.836Z,52.70
2022-10-04T14:33:46.306Z,52.20
2022-10-04T14:36:12.731Z,52.70
2022-10-04T14:38:39.125Z,52.70
2022-10-04T14:41:05.546Z,52.80
2022-10-04T14:43:31.969Z,52.20
2022-10-04T14:45:58.495Z,52.80
2022-10-04T14:48:24.928Z,52.70
2022-10-04T14:50:51.332Z,52.80
2022-10-04T14:53:17.757Z,52.30
2022-10-04T14:55:44.174Z,52.80
2022-10-04T14:58:10.595Z,52.80
2022-10-04T15:00:37.021Z,52.90
2022-10-04T15:03:05.609Z,52.40
2022-10-04T15:05:32.288Z,52.90
2022-10-04T15:07:58.733Z,52.90
2022-10-04T15:10:25.153Z,53.00
2022-10-04T15:13:10.426Z,53.00
2022-10-04T15:15:38.043Z,52.50
2022-10-04T15:18:04.499Z,53.00
2022-10-04T15:20:30.917Z,52.90
2022-10-04T15:22:57.329Z,53.00
2022-10-04T15:25:23.749Z,52.30
2022-10-04T15:27:50.142Z,53.00
2022-10-04T15:30:16.575Z,53.00
2022-10-04T15:32:43.014Z,52.50
2022-10-04T15:35:09.454Z,52.40
2022-10-04T15:37:35.875Z,53.00
2022-10-04T15:40:02.319Z,53.00
2022-10-04T15:42:28.751Z,52.90
2022-10-04T15:44:55.171Z,52.40
2022-10-04T15:47:21.583Z,53.10
2022-10-04T15:49:47.988Z,53.10
2022-10-04T15:52:14.459Z,53.00
2022-10-04T15:54:40.886Z,52.40
2022-10-04T15:57:07.304Z,53.00
2022-10-04T15:59:33.701Z,55.60
2022-10-04T16:02:00.230Z,53.00
2022-10-04T16:04:26.689Z,52.40
2022-10-04T16:06:53.102Z,53.00
2022-10-04T16:09:19.504Z,53.00
2022-10-04T16:11:45.965Z,53.00
2022-10-04T16:14:12.381Z,52.50
2022-10-04T16:16:38.879Z,53.00
2022-10-04T16:19:05.294Z,53.00
2022-10-04T16:21:31.715Z,53.00
2022-10-04T16:23:58.116Z,52.60
2022-10-04T16:26:24.529Z,53.30
2022-10-04T16:28:50.939Z,53.10
2022-10-04T16:31:20.208Z,53.20
2022-10-04T16:33:47.000Z,52.70
2022-10-04T16:36:13.525Z,53.30
2022-10-04T16:38:39.970Z,53.20
2022-10-04T16:41:06.370Z,53.30
2022-10-04T16:43:32.776Z,53.10
2022-10-04T16:45:59.225Z,53.70
2022-10-04T16:48:25.670Z,53.40
2022-10-04T16:50:52.090Z,53.40
2022-10-04T16:53:18.521Z,52.90
2022-10-04T16:55:44.940Z,53.40
2022-10-04T16:58:11.365Z,53.50
2022-10-04T17:00:37.843Z,53.40
2022-10-04T17:03:04.297Z,52.90
2022-10-04T17:05:30.716Z,53.50
2022-10-04T17:07:57.117Z,53.50
2022-10-04T17:10:23.537Z,53.50
2022-10-04T17:12:50.023Z,53.00
2022-10-04T17:15:16.442Z,53.50
2022-10-04T17:17:42.851Z,53.50
2022-10-04T17:20:09.251Z,53.60
2022-10-04T17:22:35.650Z,52.90
2022-10-04T17:25:02.057Z,52.90
2022-10-04T17:27:28.515Z,53.40
2022-10-04T17:29:54.933Z,52.90
2022-10-04T17:32:21.351Z,52.90
2022-10-04T17:34:47.751Z,53.50
2022-10-04T17:37:14.169Z,53.20
2022-10-04T17:39:40.572Z,52.50
2022-10-04T17:42:07.009Z,52.50
2022-10-04T17:44:33.417Z,53.10
2022-10-04T17:46:59.832Z,53.10
2022-10-04T17:49:26.266Z,52.50
2022-10-04T17:51:52.684Z,52.60
2022-10-04T17:54:19.093Z,53.10
2022-10-04T17:56:45.744Z,53.10
2022-10-04T17:59:12.372Z,53.10
2022-10-04T18:01:38.844Z,52.60
2022-10-04T18:04:05.285Z,52.50
2022-10-04T18:06:31.707Z,53.10
2022-10-04T18:08:58.105Z,53.10
2022-10-04T18:11:24.538Z,52.60
2022-10-04T18:13:50.948Z,53.20
2022-10-04T18:16:17.390Z,53.20
2022-10-04T18:18:43.831Z,53.20
2022-10-04T18:21:10.274Z,52.60
2022-10-04T18:23:36.669Z,53.10
2022-10-04T18:26:03.102Z,52.70
2022-10-04T18:28:29.593Z,53.20
2022-10-04T18:30:56.073Z,53.90
2022-10-04T18:33:26.085Z,52.70
2022-10-04T18:35:53.176Z,53.20
2022-10-04T18:38:19.580Z,53.10
2022-10-04T18:40:45.981Z,53.10
2022-10-04T18:43:12.395Z,52.60
2022-10-04T18:45:38.837Z,53.20
2022-10-04T18:48:05.334Z,52.60
2022-10-04T18:50:31.797Z,53.20
2022-10-04T18:52:58.220Z,52.70
2022-10-04T18:55:24.648Z,53.20
2022-10-04T18:57:51.044Z,52.70
2022-10-04T19:00:17.440Z,52.70
2022-10-04T19:02:43.868Z,52.60
2022-10-04T19:05:10.265Z,53.20
2022-10-04T19:07:36.674Z,53.20
2022-10-04T19:10:03.065Z,53.30
2022-10-04T19:12:29.458Z,52.70
2022-10-04T19:14:55.860Z,53.20
2022-10-04T19:17:22.264Z,53.20
2022-10-04T19:19:48.670Z,53.10
2022-10-04T19:22:15.094Z,52.60
2022-10-04T19:24:41.495Z,53.90
2022-10-04T19:27:07.896Z,52.70
2022-10-04T19:29:34.317Z,53.20
2022-10-04T19:32:00.712Z,52.60
2022-10-04T19:34:27.119Z,53.20
2022-10-04T19:36:53.565Z,53.20
2022-10-04T19:39:19.980Z,52.70
2022-10-04T19:41:46.378Z,52.70
2022-10-04T19:44:12.806Z,53.20
2022-10-04T19:46:39.222Z,52.70
2022-10-04T19:49:05.675Z,53.30
2022-10-04T19:51:32.066Z,52.80
2022-10-04T19:53:58.475Z,53.30
2022-10-04T19:56:24.874Z,53.30
2022-10-04T19:58:51.326Z,53.20
2022-10-04T20:01:17.808Z,52.70
2022-10-04T20:03:44.339Z,53.20
2022-10-04T20:06:10.754Z,53.10
2022-10-04T20:08:37.153Z,53.10
2022-10-04T20:11:03.549Z,52.60
2022-10-04T20:13:29.943Z,53.20
2022-10-04T20:15:56.412Z,52.60
2022-10-04T20:18:22.912Z,53.20
2022-10-04T20:20:49.344Z,53.20
2022-10-04T20:23:15.741Z,52.70
2022-10-04T20:25:42.163Z,53.20
2022-10-04T20:28:08.622Z,53.20
2022-10-04T20:30:35.062Z,53.20
2022-10-04T20:33:01.461Z,52.70
2022-10-04T20:35:27.867Z,52.60
2022-10-04T20:38:07.869Z,53.20
2022-10-04T20:40:40.187Z,53.20
2022-10-04T20:43:10.288Z,52.60
2022-10-04T20:45:37.409Z,53.10
2022-10-04T20:48:03.903Z,53.20
2022-10-04T20:50:30.312Z,53.10
2022-10-04T20:52:56.721Z,52.60
2022-10-04T20:55:23.118Z,53.10
2022-10-04T20:57:49.529Z,52.60
2022-10-04T21:00:15.948Z,53.10
2022-10-04T21:02:42.373Z,52.60
2022-10-04T21:05:08.786Z,53.10
2022-10-04T21:07:35.184Z,53.00
2022-10-04T21:10:01.598Z,53.10
2022-10-04T21:12:28.023Z,52.50
2022-10-04T21:14:54.443Z,53.00
2022-10-04T21:17:20.838Z,53.00
2022-10-04T21:19:47.249Z,53.20
2022-10-04T21:22:13.674Z,52.50
2022-10-04T21:24:40.104Z,53.00
2022-10-04T21:27:06.504Z,52.50
2022-10-04T21:29:32.903Z,53.00
2022-10-04T21:31:59.391Z,52.50
2022-10-04T21:34:48.682Z,53.00
2022-10-04T21:37:12.267Z,52.50
2022-10-04T21:39:38.675Z,53.00
2022-10-04T21:42:05.117Z,52.50
2022-10-04T21:44:31.512Z,53.00
2022-10-04T21:46:57.928Z,53.00
2022-10-04T21:49:24.325Z,52.50
2022-10-04T21:51:50.721Z,52.40
2022-10-04T21:54:17.140Z,53.00
2022-10-04T21:56:43.783Z,53.00
2022-10-04T21:59:10.450Z,53.00
2022-10-04T22:01:36.918Z,52.40
